Pagina principale
METAR-TAF:

METAR-TAF

Aeroporti :

Santa Maria di Leuca

Castrignano del Capo, Italia

latitudine: 39-49N, longitudine: 018-21E, altezza: 104 m

Osservazione

Il bollettino è stato emesso 53 minuti fa, alle 17:55 UTC
Vento 9 kt da sud-est
Temperature 11°C
Umidità 82%
Pressione 1012 hPa
Visibilità: 7000 m
Poco nuvoloso ad un'altezza di 1000 ft
Nubi sparse ad un'altezza di 1500 ft
Nuvoloso ad un'altezza di 3000 ft
pioggia

METAR: LIBY 191755Z 14009KT 7000 RA FEW010 SCT015 BKN030 11/08 Q1012 RMK OVC QUK / QUL / VIS MAR 7 KM VIS MIN 7000

Ora: 19:48 (18:48 UTC)


TAF: mancante

Osservazioni e previsioni meteorologiche di più di 4000 aeroporti (messaggi METAR e TAF).

Le stazioni disponibili sono rappresentate dai dischi gialli e rossi sulla carta.

Puntare il mouse per vedere il nome della stazione.

Clicca sopra per visualizzare le osservazioni e previsioni meteorologiche.

Per cambiare la mappa : fare clic sui pulsanti verdi con una croce nera per ingrandire, il pulsante verde con un trattino per diminuire, o sulla freccia verde per le mappe adiacenti.


METAR-TAF: